createdAt,value
2018-12-16T00:01:30.285Z,6.97
2018-12-16T00:03:57.828Z,6.50
2018-12-16T00:06:25.352Z,5.87
2018-12-16T00:08:52.874Z,6.20
2018-12-16T00:11:20.397Z,5.53
2018-12-16T00:13:47.911Z,5.93
2018-12-16T00:16:15.443Z,7.23
2018-12-16T00:18:42.988Z,6.73
2018-12-16T00:21:10.503Z,8.13
2018-12-16T00:23:38.171Z,5.57
2018-12-16T00:26:05.681Z,4.80
2018-12-16T00:28:33.230Z,6.00
2018-12-16T00:31:00.740Z,5.17
2018-12-16T00:33:28.249Z,7.30
2018-12-16T00:35:55.775Z,6.37
2018-12-16T00:38:23.305Z,5.80
2018-12-16T00:40:50.832Z,6.43
2018-12-16T00:43:18.402Z,6.07
2018-12-16T00:45:45.911Z,5.63
2018-12-16T00:48:13.436Z,6.07
2018-12-16T00:50:40.974Z,6.37
2018-12-16T00:53:08.509Z,6.03
2018-12-16T00:55:36.055Z,7.03
2018-12-16T00:58:03.712Z,5.00
2018-12-16T01:00:31.500Z,6.13
2018-12-16T01:02:59.033Z,6.17
2018-12-16T01:05:26.561Z,9.43
2018-12-16T01:07:54.096Z,8.30
2018-12-16T01:10:21.615Z,7.23
2018-12-16T01:12:49.157Z,6.30
2018-12-16T01:15:16.698Z,7.27
2018-12-16T01:17:44.230Z,6.47
2018-12-16T01:20:11.772Z,7.53
2018-12-16T01:22:43.400Z,7.43
2018-12-16T01:25:08.847Z,10.63
2018-12-16T01:27:36.407Z,8.00
2018-12-16T01:30:04.934Z,7.80
2018-12-16T01:32:32.454Z,7.43
2018-12-16T01:34:59.974Z,6.17
2018-12-16T01:37:27.503Z,7.73
2018-12-16T01:39:55.019Z,6.17
2018-12-16T01:42:22.691Z,6.33
2018-12-16T01:44:50.216Z,7.97
2018-12-16T01:47:17.741Z,7.97
2018-12-16T01:49:45.266Z,8.80
2018-12-16T01:52:12.798Z,6.83
2018-12-16T01:54:40.310Z,8.30
2018-12-16T01:57:07.821Z,7.10
2018-12-16T01:59:35.344Z,7.17
2018-12-16T02:02:02.868Z,6.70
2018-12-16T02:04:30.394Z,8.03
2018-12-16T02:06:57.927Z,7.20
2018-12-16T02:09:25.445Z,5.93
2018-12-16T02:11:53.073Z,8.50
2018-12-16T02:14:20.604Z,7.13
2018-12-16T02:16:48.131Z,7.20
2018-12-16T02:19:15.671Z,6.37
2018-12-16T02:21:43.199Z,7.50
2018-12-16T02:24:10.730Z,5.57
2018-12-16T02:26:38.250Z,6.07
2018-12-16T02:29:05.790Z,7.87
2018-12-16T02:31:33.337Z,7.20
2018-12-16T02:34:00.878Z,6.60
2018-12-16T02:36:28.411Z,5.83
2018-12-16T02:38:55.958Z,5.63
2018-12-16T02:41:23.474Z,6.47
2018-12-16T02:43:51.108Z,6.27
2018-12-16T02:46:18.645Z,5.47
2018-12-16T02:48:46.162Z,6.97
2018-12-16T02:51:13.681Z,7.00
2018-12-16T02:53:41.209Z,6.23
2018-12-16T02:56:08.714Z,6.03
2018-12-16T02:58:36.549Z,5.90
2018-12-16T03:01:04.069Z,7.87
2018-12-16T03:03:31.598Z,5.90
2018-12-16T03:05:59.437Z,6.97
2018-12-16T03:08:26.961Z,5.30
2018-12-16T03:10:54.483Z,5.97
2018-12-16T03:13:22.026Z,7.67
2018-12-16T03:15:49.571Z,5.43
2018-12-16T03:18:18.298Z,5.00
2018-12-16T03:20:45.813Z,7.20
2018-12-16T03:23:13.353Z,5.03
2018-12-16T03:25:40.853Z,6.10
2018-12-16T03:28:08.373Z,4.93
2018-12-16T03:30:35.917Z,5.20
2018-12-16T03:33:03.453Z,5.23
2018-12-16T03:35:30.992Z,5.43
2018-12-16T03:37:58.652Z,5.10
2018-12-16T03:40:26.173Z,5.60
2018-12-16T03:42:53.729Z,6.17
2018-12-16T03:45:21.253Z,5.77
2018-12-16T03:47:48.774Z,5.47
2018-12-16T03:50:16.414Z,5.37
2018-12-16T03:52:43.950Z,6.13
2018-12-16T03:55:11.489Z,5.73
2018-12-16T03:57:39.011Z,6.37
2018-12-16T04:00:07.014Z,5.77
2018-12-16T04:02:34.558Z,5.70
2018-12-16T04:05:02.100Z,5.47
2018-12-16T04:07:29.620Z,7.07
2018-12-16T04:09:57.133Z,5.23
2018-12-16T04:12:24.637Z,6.03
2018-12-16T04:14:52.173Z,5.83
2018-12-16T04:17:19.707Z,6.63
2018-12-16T04:19:47.242Z,8.10
2018-12-16T04:22:14.776Z,7.17
2018-12-16T04:24:42.301Z,6.67
2018-12-16T04:27:09.843Z,7.70
2018-12-16T04:29:37.380Z,7.70
2018-12-16T04:32:05.014Z,6.67
2018-12-16T04:34:32.547Z,7.90
2018-12-16T04:37:00.072Z,6.93
2018-12-16T04:39:27.600Z,7.40
2018-12-16T04:41:55.405Z,7.77
2018-12-16T04:44:22.937Z,7.57
2018-12-16T04:46:50.481Z,7.53
2018-12-16T04:49:18.004Z,8.50
2018-12-16T04:51:45.540Z,7.63
2018-12-16T04:54:13.072Z,6.70
2018-12-16T04:56:40.606Z,7.03
2018-12-16T04:59:08.127Z,6.47
2018-12-16T05:01:35.652Z,6.87
2018-12-16T05:04:03.181Z,6.40
2018-12-16T05:06:30.713Z,6.97
2018-12-16T05:08:58.219Z,8.57
2018-12-16T05:11:25.729Z,7.30
2018-12-16T05:13:53.251Z,6.97
2018-12-16T05:16:20.775Z,7.23
2018-12-16T05:18:48.288Z,6.63
2018-12-16T05:21:15.819Z,7.00
2018-12-16T05:23:43.333Z,7.23
2018-12-16T05:26:10.855Z,8.40
2018-12-16T05:28:38.378Z,9.50
2018-12-16T05:31:05.901Z,7.13
2018-12-16T05:33:33.415Z,8.30
2018-12-16T05:36:00.921Z,6.73
2018-12-16T05:38:28.473Z,8.30
2018-12-16T05:40:56.003Z,7.50
2018-12-16T05:43:23.554Z,8.50
2018-12-16T05:45:51.079Z,7.33
2018-12-16T05:48:18.614Z,7.90
2018-12-16T05:50:46.158Z,7.47
2018-12-16T05:53:13.689Z,7.30
2018-12-16T05:55:41.517Z,8.40
2018-12-16T05:58:09.044Z,7.93
2018-12-16T06:00:36.567Z,7.63
2018-12-16T06:03:04.107Z,7.13
2018-12-16T06:05:31.635Z,9.03
2018-12-16T06:08:00.093Z,10.40
2018-12-16T06:10:28.419Z,11.33
2018-12-16T06:12:55.952Z,13.27
2018-12-16T06:15:23.477Z,46.77
2018-12-16T06:17:51.018Z,20.97
2018-12-16T06:20:18.564Z,42.50
2018-12-16T06:22:46.100Z,104.13
2018-12-16T06:25:13.654Z,24.40
2018-12-16T06:27:41.177Z,110.87
2018-12-16T06:30:09.438Z,42.50
2018-12-16T06:32:36.954Z,191.53
2018-12-16T06:35:04.739Z,229.77
2018-12-16T06:37:32.264Z,41.10
2018-12-16T06:39:59.813Z,42.53
2018-12-16T06:42:27.349Z,152.90
2018-12-16T06:44:54.869Z,24.13
2018-12-16T06:47:22.525Z,35.93
2018-12-16T06:49:50.076Z,39.07
2018-12-16T06:52:17.588Z,51.67
2018-12-16T06:54:45.145Z,96.53
2018-12-16T06:57:12.680Z,49.10
2018-12-16T06:59:40.198Z,155.47
2018-12-16T07:02:07.735Z,117.80
2018-12-16T07:04:35.263Z,20.07
2018-12-16T07:07:02.801Z,47.67
2018-12-16T07:09:30.406Z,39.40
2018-12-16T07:11:57.959Z,61.00
2018-12-16T07:14:25.497Z,86.53
2018-12-16T07:16:53.087Z,19.13
2018-12-16T07:19:20.693Z,72.73
2018-12-16T07:21:48.474Z,92.13
2018-12-16T07:24:16.006Z,65.60
2018-12-16T07:26:43.778Z,43.33
2018-12-16T07:29:11.308Z,40.43
2018-12-16T07:31:38.849Z,21.90
2018-12-16T07:34:06.374Z,62.03
2018-12-16T07:36:34.065Z,117.17
2018-12-16T07:39:01.588Z,44.47
2018-12-16T07:41:29.175Z,35.43
2018-12-16T07:43:56.801Z,22.10
2018-12-16T07:46:24.385Z,15.73
2018-12-16T07:48:52.108Z,18.93
2018-12-16T07:51:19.624Z,16.27
2018-12-16T07:53:47.419Z,13.47
2018-12-16T07:56:14.952Z,12.17
2018-12-16T07:58:42.568Z,12.67
2018-12-16T08:01:10.296Z,13.93
2018-12-16T08:03:37.843Z,15.37
2018-12-16T08:06:05.371Z,12.87
2018-12-16T08:08:32.907Z,12.63
2018-12-16T08:11:00.452Z,13.47
2018-12-16T08:13:27.988Z,19.73
2018-12-16T08:15:55.527Z,14.87
2018-12-16T08:18:23.046Z,12.70
2018-12-16T08:20:50.583Z,14.30
2018-12-16T08:23:18.111Z,11.33
2018-12-16T08:25:45.616Z,13.07
2018-12-16T08:28:13.143Z,12.37
2018-12-16T08:30:40.770Z,9.43
2018-12-16T08:33:08.321Z,8.23
2018-12-16T08:35:35.853Z,13.03
2018-12-16T08:38:03.414Z,8.87
2018-12-16T08:40:30.976Z,12.57
2018-12-16T08:42:58.511Z,9.27
2018-12-16T08:45:26.065Z,9.07
2018-12-16T08:47:53.603Z,9.23
2018-12-16T08:50:21.123Z,8.97
2018-12-16T08:52:48.657Z,12.87
2018-12-16T08:55:16.209Z,11.10
2018-12-16T08:57:43.741Z,10.97
2018-12-16T09:00:11.493Z,14.50
2018-12-16T09:02:39.031Z,9.43
2018-12-16T09:05:06.753Z,9.33
2018-12-16T09:07:37.352Z,6.33
2018-12-16T09:10:08.053Z,9.77
2018-12-16T09:12:35.760Z,9.40
2018-12-16T09:15:04.692Z,7.33
2018-12-16T09:17:32.215Z,7.37
2018-12-16T09:19:59.751Z,5.83
2018-12-16T09:22:27.265Z,6.00
2018-12-16T09:24:54.766Z,6.40
2018-12-16T09:27:22.315Z,6.50
2018-12-16T09:29:49.845Z,6.13
2018-12-16T09:32:17.370Z,5.90
2018-12-16T09:34:44.901Z,5.80
2018-12-16T09:37:12.429Z,4.83
2018-12-16T09:39:39.962Z,4.83
2018-12-16T09:42:07.495Z,8.30
2018-12-16T09:44:35.728Z,7.07
2018-12-16T09:47:03.364Z,4.77
2018-12-16T09:49:30.937Z,5.77
2018-12-16T09:51:58.568Z,4.23
2018-12-16T09:54:26.096Z,5.50
2018-12-16T09:56:53.634Z,5.10
2018-12-16T09:59:21.154Z,7.53
2018-12-16T10:01:48.678Z,6.83
2018-12-16T10:04:16.443Z,5.80
2018-12-16T10:06:43.978Z,5.83
2018-12-16T10:09:11.526Z,4.57
2018-12-16T10:11:39.055Z,4.93
2018-12-16T10:14:06.607Z,4.13
2018-12-16T10:16:34.140Z,5.30
2018-12-16T10:19:01.672Z,4.27
2018-12-16T10:21:29.203Z,5.07
2018-12-16T10:23:56.741Z,5.83
2018-12-16T10:26:24.244Z,4.80
2018-12-16T10:28:51.777Z,4.57
2018-12-16T10:31:19.301Z,3.70
2018-12-16T10:33:46.809Z,5.27
2018-12-16T10:36:14.329Z,4.23
2018-12-16T10:38:41.830Z,4.77
2018-12-16T10:41:09.354Z,5.37
2018-12-16T10:43:36.898Z,3.43
2018-12-16T10:46:04.427Z,4.73
2018-12-16T10:48:31.930Z,4.90
2018-12-16T10:50:59.439Z,6.00
2018-12-16T10:53:27.011Z,4.00
2018-12-16T10:55:54.526Z,5.80
2018-12-16T10:58:22.041Z,4.13
2018-12-16T11:00:55.202Z,3.97
2018-12-16T11:03:22.733Z,4.57
2018-12-16T11:05:50.286Z,5.60
2018-12-16T11:08:17.795Z,5.00
2018-12-16T11:10:45.390Z,6.13
2018-12-16T11:13:12.960Z,3.87
2018-12-16T11:15:40.494Z,4.20
2018-12-16T11:18:08.020Z,4.23
2018-12-16T11:20:35.546Z,5.43
2018-12-16T11:23:03.050Z,4.27
2018-12-16T11:25:31.493Z,5.43
2018-12-16T11:27:59.031Z,4.47
2018-12-16T11:30:26.547Z,3.67
2018-12-16T11:32:54.081Z,4.13
2018-12-16T11:35:21.621Z,2.93
2018-12-16T11:37:49.167Z,3.77
2018-12-16T11:40:16.691Z,4.63
2018-12-16T11:42:44.210Z,3.60
2018-12-16T11:45:11.742Z,3.23
2018-12-16T11:47:39.275Z,4.13
2018-12-16T11:50:07.011Z,4.40
2018-12-16T11:52:34.539Z,6.60
2018-12-16T11:55:02.082Z,3.70
2018-12-16T11:57:29.632Z,3.07
2018-12-16T11:59:57.163Z,3.53
2018-12-16T12:02:24.689Z,4.57
2018-12-16T12:04:52.563Z,4.50
2018-12-16T12:07:20.135Z,3.67
2018-12-16T12:09:47.694Z,3.50
2018-12-16T12:12:15.233Z,6.13
2018-12-16T12:14:42.764Z,4.60
2018-12-16T12:17:10.274Z,3.37
2018-12-16T12:19:38.411Z,5.23
2018-12-16T12:22:05.936Z,4.90
2018-12-16T12:24:33.474Z,4.57
2018-12-16T12:27:00.985Z,5.50
2018-12-16T12:29:28.503Z,4.97
2018-12-16T12:31:56.035Z,5.80
2018-12-16T12:34:23.816Z,5.07
2018-12-16T12:36:51.344Z,4.47
2018-12-16T12:39:18.879Z,6.00
2018-12-16T12:41:46.407Z,5.00
2018-12-16T12:44:13.928Z,5.33
2018-12-16T12:46:41.714Z,5.53
2018-12-16T12:49:09.221Z,6.03
2018-12-16T12:51:36.757Z,4.10
2018-12-16T12:54:04.279Z,5.43
2018-12-16T12:56:31.805Z,6.07
2018-12-16T12:58:59.327Z,5.83
2018-12-16T13:01:26.851Z,6.17
2018-12-16T13:03:54.389Z,6.37
2018-12-16T13:06:21.915Z,5.77
2018-12-16T13:08:49.431Z,5.63
2018-12-16T13:11:16.959Z,5.83
2018-12-16T13:13:44.561Z,4.60
2018-12-16T13:16:12.100Z,6.40
2018-12-16T13:18:39.641Z,6.10
2018-12-16T13:21:07.152Z,5.37
2018-12-16T13:23:34.655Z,4.63
2018-12-16T13:26:02.612Z,5.53
2018-12-16T13:28:30.148Z,5.23
2018-12-16T13:30:57.801Z,5.27
2018-12-16T13:33:25.398Z,5.50
2018-12-16T13:35:52.931Z,6.97
2018-12-16T13:38:20.494Z,6.43
2018-12-16T13:40:48.033Z,5.37
2018-12-16T13:43:15.575Z,6.00
2018-12-16T13:45:43.084Z,6.13
2018-12-16T13:48:10.675Z,7.97
2018-12-16T13:50:38.212Z,5.80
2018-12-16T13:53:05.729Z,5.40
2018-12-16T13:55:33.488Z,7.07
2018-12-16T13:58:01.121Z,5.83
2018-12-16T14:00:28.649Z,6.27
2018-12-16T14:02:56.183Z,5.77
2018-12-16T14:05:23.710Z,5.10
2018-12-16T14:07:51.224Z,5.50
2018-12-16T14:10:19.092Z,6.77
2018-12-16T14:12:46.598Z,6.97
2018-12-16T14:15:14.227Z,6.27
2018-12-16T14:17:41.750Z,7.03
2018-12-16T14:20:09.358Z,7.60
2018-12-16T14:22:36.883Z,7.50
2018-12-16T14:25:05.342Z,7.17
2018-12-16T14:27:32.868Z,8.67
2018-12-16T14:30:00.392Z,7.23
2018-12-16T14:32:27.933Z,6.43
2018-12-16T14:34:55.445Z,8.83
2018-12-16T14:37:22.954Z,6.07
2018-12-16T14:39:50.477Z,8.03
2018-12-16T14:42:18.009Z,10.20
2018-12-16T14:44:45.521Z,7.93
2018-12-16T14:47:13.037Z,7.47
2018-12-16T14:49:40.549Z,6.60
2018-12-16T14:52:08.186Z,7.60
2018-12-16T14:54:35.689Z,5.30
2018-12-16T14:57:03.231Z,6.87
2018-12-16T14:59:30.745Z,6.70
2018-12-16T15:01:58.271Z,6.10
2018-12-16T15:04:25.909Z,6.77
2018-12-16T15:06:53.455Z,5.77
2018-12-16T15:09:21.090Z,6.73
2018-12-16T15:11:48.642Z,7.00
2018-12-16T15:14:16.170Z,6.80
2018-12-16T15:16:43.681Z,7.57
2018-12-16T15:19:11.195Z,6.53
2018-12-16T15:21:38.927Z,7.77
2018-12-16T15:24:06.457Z,5.77
2018-12-16T15:26:33.968Z,7.97
2018-12-16T15:29:01.487Z,7.63
2018-12-16T15:31:29.020Z,6.07
2018-12-16T15:33:56.551Z,5.40
2018-12-16T15:36:24.065Z,5.70
2018-12-16T15:38:51.679Z,5.33
2018-12-16T15:41:19.185Z,6.27
2018-12-16T15:43:46.700Z,5.30
2018-12-16T15:46:14.246Z,7.07
2018-12-16T15:48:41.771Z,5.83
2018-12-16T15:51:09.274Z,6.73
2018-12-16T15:53:37.146Z,5.37
2018-12-16T15:56:09.375Z,5.00
2018-12-16T15:58:34.230Z,5.73
2018-12-16T16:01:01.771Z,6.50
2018-12-16T16:03:29.295Z,4.93
2018-12-16T16:05:56.825Z,7.73
2018-12-16T16:08:24.349Z,4.83
2018-12-16T16:10:52.832Z,5.03
2018-12-16T16:13:20.604Z,5.90
2018-12-16T16:15:48.146Z,5.37
2018-12-16T16:18:15.692Z,6.20
2018-12-16T16:20:43.211Z,6.07
2018-12-16T16:23:10.742Z,6.70
2018-12-16T16:25:38.271Z,6.20
2018-12-16T16:28:05.805Z,6.90
2018-12-16T16:30:33.338Z,6.03
2018-12-16T16:33:00.868Z,6.90
2018-12-16T16:35:28.806Z,6.77
2018-12-16T16:38:00.590Z,6.47
2018-12-16T16:40:26.114Z,6.97
2018-12-16T16:42:53.679Z,7.03
2018-12-16T16:45:21.196Z,6.27
2018-12-16T16:47:48.733Z,7.23
2018-12-16T16:50:16.248Z,8.03
2018-12-16T16:52:43.773Z,8.07
2018-12-16T16:55:11.309Z,6.57
2018-12-16T16:57:38.831Z,7.80
2018-12-16T17:00:07.606Z,5.90
2018-12-16T17:02:35.133Z,6.57
2018-12-16T17:05:02.802Z,7.10
2018-12-16T17:07:30.314Z,7.20
2018-12-16T17:09:57.829Z,5.47
2018-12-16T17:12:25.362Z,6.63
2018-12-16T17:14:52.900Z,6.13
2018-12-16T17:17:20.431Z,5.53
2018-12-16T17:19:47.951Z,6.33
2018-12-16T17:22:15.591Z,8.47
2018-12-16T17:24:43.105Z,6.40
2018-12-16T17:27:10.613Z,4.80
2018-12-16T17:29:38.425Z,5.67
2018-12-16T17:32:05.952Z,5.50
2018-12-16T17:34:33.497Z,6.60
2018-12-16T17:37:01.044Z,4.70
2018-12-16T17:39:28.564Z,6.67
2018-12-16T17:41:56.098Z,5.97
2018-12-16T17:44:23.623Z,4.00
2018-12-16T17:46:51.139Z,4.40
2018-12-16T17:49:18.654Z,4.87
2018-12-16T17:51:46.219Z,4.73
2018-12-16T17:54:13.740Z,5.87
2018-12-16T17:56:41.281Z,4.47
2018-12-16T17:59:08.830Z,6.70
2018-12-16T18:01:38.067Z,5.10
2018-12-16T18:04:07.636Z,4.70
2018-12-16T18:06:35.152Z,4.37
2018-12-16T18:09:02.987Z,4.10
2018-12-16T18:11:31.074Z,6.50
2018-12-16T18:13:58.634Z,5.20
2018-12-16T18:16:26.155Z,4.77
2018-12-16T18:18:53.680Z,5.70
2018-12-16T18:21:21.228Z,5.03
2018-12-16T18:23:48.742Z,6.00
2018-12-16T18:26:16.393Z,5.57
2018-12-16T18:28:44.119Z,4.90
2018-12-16T18:31:11.737Z,5.53
2018-12-16T18:33:39.264Z,5.07
2018-12-16T18:36:06.849Z,5.60
2018-12-16T18:38:34.498Z,5.50
2018-12-16T18:41:02.016Z,4.97
2018-12-16T18:43:29.661Z,5.07
2018-12-16T18:45:57.213Z,5.87
2018-12-16T18:48:24.748Z,5.20
2018-12-16T18:50:52.263Z,4.97
2018-12-16T18:53:19.823Z,4.50
2018-12-16T18:55:47.361Z,5.50
2018-12-16T18:58:14.890Z,4.83
2018-12-16T19:00:42.393Z,5.83
2018-12-16T19:03:09.916Z,3.97
2018-12-16T19:05:37.439Z,4.80
2018-12-16T19:08:04.959Z,5.33
2018-12-16T19:10:32.476Z,6.30
2018-12-16T19:12:59.993Z,5.40
2018-12-16T19:15:27.801Z,5.87
2018-12-16T19:17:55.331Z,4.63
2018-12-16T19:20:22.833Z,7.87
2018-12-16T19:22:50.349Z,4.87
2018-12-16T19:25:17.880Z,6.20
2018-12-16T19:27:45.417Z,4.57
2018-12-16T19:30:12.947Z,5.23
2018-12-16T19:32:40.467Z,6.60
2018-12-16T19:35:08.120Z,4.60
2018-12-16T19:37:35.650Z,5.23
2018-12-16T19:40:03.701Z,4.10
2018-12-16T19:42:31.210Z,3.97
2018-12-16T19:44:58.758Z,4.17
2018-12-16T19:47:26.280Z,4.87
2018-12-16T19:49:53.796Z,4.83
2018-12-16T19:52:21.322Z,4.60
2018-12-16T19:54:49.259Z,4.60
2018-12-16T19:57:16.873Z,3.80
2018-12-16T19:59:44.408Z,3.70
2018-12-16T20:02:11.948Z,4.40
2018-12-16T20:04:45.114Z,2.87
2018-12-16T20:07:12.637Z,3.40
2018-12-16T20:09:40.160Z,2.80
2018-12-16T20:12:07.677Z,2.77
2018-12-16T20:14:35.219Z,4.00
2018-12-16T20:17:02.877Z,3.30
2018-12-16T20:19:30.426Z,2.67
2018-12-16T20:21:57.965Z,2.63
2018-12-16T20:24:26.278Z,2.40
2018-12-16T20:26:53.947Z,2.67
2018-12-16T20:29:21.487Z,3.00
2018-12-16T20:31:49.017Z,1.70
2018-12-16T20:34:16.560Z,1.77
2018-12-16T20:36:44.096Z,2.03
2018-12-16T20:39:11.640Z,1.43
2018-12-16T20:41:39.215Z,1.70
2018-12-16T20:44:06.766Z,1.40
2018-12-16T20:46:34.294Z,2.07
2018-12-16T20:49:01.844Z,1.10
2018-12-16T20:51:29.349Z,1.27
2018-12-16T20:53:56.868Z,1.33
2018-12-16T20:56:24.389Z,1.10
2018-12-16T20:58:51.930Z,2.17
2018-12-16T21:01:19.467Z,1.40
2018-12-16T21:03:47.016Z,1.53
2018-12-16T21:06:14.765Z,2.73
2018-12-16T21:08:42.326Z,1.20
2018-12-16T21:11:15.540Z,1.00
2018-12-16T21:13:48.803Z,1.47
2018-12-16T21:16:21.953Z,1.73
2018-12-16T21:18:49.570Z,1.03
2018-12-16T21:21:17.077Z,0.93
2018-12-16T21:23:44.595Z,1.40
2018-12-16T21:26:12.239Z,0.70
2018-12-16T21:28:39.791Z,0.80
2018-12-16T21:31:07.436Z,0.60
2018-12-16T21:33:34.970Z,1.50
2018-12-16T21:36:02.490Z,1.00
2018-12-16T21:38:30.015Z,0.60
2018-12-16T21:40:57.545Z,1.30
2018-12-16T21:43:25.075Z,0.60
2018-12-16T21:45:52.599Z,1.10
2018-12-16T21:48:20.125Z,0.60
2018-12-16T21:50:47.671Z,0.93
2018-12-16T21:53:15.205Z,1.50
2018-12-16T21:55:42.717Z,0.60
2018-12-16T21:58:10.296Z,0.90
2018-12-16T22:00:37.819Z,0.50
2018-12-16T22:03:05.340Z,1.03
2018-12-16T22:05:32.856Z,0.93
2018-12-16T22:08:00.358Z,0.50
2018-12-16T22:10:27.880Z,1.07
2018-12-16T22:12:55.403Z,0.70
2018-12-16T22:15:22.916Z,0.43
2018-12-16T22:17:50.455Z,0.60
2018-12-16T22:20:17.980Z,0.50
2018-12-16T22:22:45.508Z,0.77
2018-12-16T22:25:13.014Z,0.60
2018-12-16T22:27:40.625Z,0.60
2018-12-16T22:30:09.195Z,0.80
2018-12-16T22:32:36.706Z,0.60
2018-12-16T22:35:04.464Z,1.17
2018-12-16T22:37:31.983Z,0.67
2018-12-16T22:39:59.522Z,0.47
2018-12-16T22:42:27.037Z,0.60
2018-12-16T22:44:54.555Z,0.60
2018-12-16T22:47:22.090Z,1.10
2018-12-16T22:49:49.619Z,0.57
2018-12-16T22:52:17.130Z,0.50
2018-12-16T22:54:44.669Z,0.47
2018-12-16T22:57:12.217Z,0.73
2018-12-16T22:59:39.758Z,0.70
2018-12-16T23:02:07.292Z,0.87
2018-12-16T23:04:34.807Z,0.57
2018-12-16T23:07:02.350Z,0.70
2018-12-16T23:09:29.866Z,1.00
2018-12-16T23:11:57.375Z,0.60
2018-12-16T23:14:24.964Z,0.60
2018-12-16T23:16:53.525Z,0.83
2018-12-16T23:19:21.053Z,0.87
2018-12-16T23:21:48.576Z,1.67
2018-12-16T23:24:16.199Z,0.60
2018-12-16T23:26:43.716Z,0.60
2018-12-16T23:29:11.225Z,1.10
2018-12-16T23:31:38.754Z,1.70
2018-12-16T23:34:06.411Z,0.97
2018-12-16T23:36:33.942Z,1.63
2018-12-16T23:39:01.450Z,0.60
2018-12-16T23:41:28.976Z,1.07
2018-12-16T23:43:56.515Z,0.67
2018-12-16T23:46:24.054Z,0.60
2018-12-16T23:48:51.557Z,1.00
2018-12-16T23:51:19.076Z,1.50
2018-12-16T23:53:46.621Z,1.33
2018-12-16T23:56:14.155Z,0.90
2018-12-16T23:58:41.671Z,0.93
